Time;durP1;ratioP1;P1;durP2;ratioP2;P2;SDS_P1;SDS_P2;PMS_P1;PMS_P2;Temp;Humidity;BMP_temperature;BMP_pressure;BME280_temperature;BME280_humidity;BME280_pressure;Samples;Min_cycle;Max_cycle;Signal;HPM_P1;HPM_P2
2022/09/05 00:02:28;;;;;;;78.22;74.00;;;;;;;26.51;35.46;101729.75;5047584;28;20108;-72
2022/09/05 00:05:26;;;;;;;75.90;72.13;;;;;;;26.48;35.32;101738.72;5044170;28;20041;-72
2022/09/05 00:08:22;;;;;;;78.15;74.45;;;;;;;26.45;35.46;101745.72;5010724;28;20046;-72
2022/09/05 00:11:08;;;;;;;80.38;76.47;;;;;;;26.40;35.55;101740.34;5046422;28;20036;-71
2022/09/05 00:13:59;;;;;;;76.28;72.57;;;;;;;26.38;35.73;101733.50;5034135;28;20473;-71
2022/09/05 00:16:41;;;;;;;80.15;75.88;;;;;;;26.33;35.29;101729.78;5043126;28;20048;-72
2022/09/05 00:19:31;;;;;;;76.55;72.65;;;;;;;26.32;35.86;101735.63;5033608;28;20385;-73
2022/09/05 00:22:20;;;;;;;76.85;72.55;;;;;;;26.28;35.69;101729.94;5041362;28;20025;-71
2022/09/05 00:24:45;;;;;;;74.90;71.20;;;;;;;26.26;35.81;101731.41;5043476;28;20111;-72
2022/09/05 00:27:38;;;;;;;78.07;74.47;;;;;;;26.22;35.67;101728.47;5046504;28;20449;-72
2022/09/05 00:30:17;;;;;;;74.03;69.93;;;;;;;26.19;35.87;101726.34;5033852;28;20030;-73
2022/09/05 00:33:02;;;;;;;72.03;68.32;;;;;;;26.17;35.45;101722.28;5035387;28;20485;-73
2022/09/05 00:35:41;;;;;;;78.57;74.40;;;;;;;26.15;35.50;101730.09;5042446;28;20072;-72
2022/09/05 00:38:17;;;;;;;;;;;;;;;26.10;35.64;101729.09;5042200;28;20129;-73
2022/09/05 00:40:55;;;;;;;74.75;70.82;;;;;;;26.06;35.50;101725.34;5042593;28;19927;-73
2022/09/05 00:43:35;;;;;;;77.22;73.03;;;;;;;26.03;35.86;101728.78;5032577;28;20053;-73
2022/09/05 00:46:07;;;;;;;76.30;72.20;;;;;;;26.00;35.94;101726.63;5037244;28;20111;-72
2022/09/05 00:48:52;;;;;;;75.05;71.35;;;;;;;25.99;35.65;101726.97;5032573;28;20049;-72
2022/09/05 00:51:38;;;;;;;77.22;73.22;;;;;;;25.95;35.49;101720.44;5037080;28;20110;-72
2022/09/05 00:54:51;;;;;;;75.90;71.93;;;;;;;25.92;35.54;101721.09;5044653;28;20033;-73
2022/09/05 00:58:01;;;;;;;72.85;69.28;;;;;;;25.88;35.66;101719.00;4995744;28;20061;-73
2022/09/05 01:00:58;;;;;;;75.70;71.40;;;;;;;25.84;35.76;101717.16;5045911;28;20050;-73
2022/09/05 01:03:43;;;;;;;71.25;67.22;;;;;;;25.81;35.50;101718.63;5018460;28;20409;-72
2022/09/05 01:06:26;;;;;;;74.38;70.53;;;;;;;25.79;35.58;101722.84;5036829;28;20034;-74
2022/09/05 01:08:55;;;;;;;77.32;73.35;;;;;;;25.75;36.10;101717.13;5039850;28;20099;-73
2022/09/05 01:11:47;;;;;;;77.13;72.60;;;;;;;25.74;35.72;101720.22;5039657;28;20033;-72
2022/09/05 01:14:28;;;;;;;78.85;75.07;;;;;;;25.71;35.67;101720.88;5034873;28;20034;-72
2022/09/05 01:16:59;;;;;;;76.00;72.20;;;;;;;25.67;35.65;101720.69;5041678;28;20039;-72
2022/09/05 01:19:35;;;;;;;74.18;70.40;;;;;;;25.64;35.65;101722.16;5036135;28;20044;-72
2022/09/05 01:22:06;;;;;;;75.75;72.05;;;;;;;25.62;35.73;101716.09;5045613;28;20043;-73
2022/09/05 01:25:02;;;;;;;77.65;73.65;;;;;;;25.60;35.63;101720.34;5040904;28;20084;-73
2022/09/05 01:28:00;;;;;;;73.88;70.20;;;;;;;25.56;35.82;101713.84;5032874;28;20056;-73
2022/09/05 01:30:49;;;;;;;73.63;69.60;;;;;;;25.53;36.01;101719.97;5077453;28;20041;-72
2022/09/05 01:33:31;;;;;;;77.13;73.32;;;;;;;25.50;36.06;101720.63;5030653;28;20112;-73
2022/09/05 01:36:06;;;;;;;75.00;71.28;;;;;;;25.46;35.65;101717.69;5043001;28;20025;-73
2022/09/05 01:38:50;;;;;;;73.90;69.97;;;;;;;25.44;35.54;101712.47;5037524;28;20516;-72
2022/09/05 01:41:15;;;;;;;76.35;72.43;;;;;;;25.41;36.01;101715.09;5031061;28;20053;-73
2022/09/05 01:43:59;;;;;;;73.60;69.72;;;;;;;25.38;35.96;101713.78;5032174;28;20029;-73
2022/09/05 01:46:42;;;;;;;80.60;76.60;;;;;;;25.36;35.90;101716.03;5046859;28;20099;-74
2022/09/05 01:49:26;;;;;;;72.65;69.00;;;;;;;25.33;36.20;101708.38;5047758;28;20072;-75
2022/09/05 01:52:28;;;;;;;74.00;70.20;;;;;;;25.31;36.11;101704.31;5047378;28;20029;-75
2022/09/05 01:55:15;;;;;;;74.55;70.43;;;;;;;25.27;35.96;101704.13;5031817;28;20101;-75
2022/09/05 01:57:59;;;;;;;73.30;69.28;;;;;;;25.24;36.13;101705.56;5046161;28;20495;-73
2022/09/05 02:00:38;;;;;;;75.80;71.88;;;;;;;25.22;35.77;101713.41;5032526;28;20034;-76
2022/09/05 02:03:33;;;;;;;75.93;71.78;;;;;;;25.19;35.85;101710.44;5033175;28;20036;-74
2022/09/05 02:06:37;;;;;;;69.57;65.60;;;;;;;25.17;36.15;101712.69;5032095;28;20457;-75
2022/09/05 02:09:29;;;;;;;71.53;67.75;;;;;;;25.13;36.28;101718.03;5037948;28;20124;-74
2022/09/05 02:12:02;;;;;;;76.30;72.07;;;;;;;25.09;36.02;101703.19;5032547;28;20049;-76
2022/09/05 02:14:36;;;;;;;76.72;72.90;;;;;;;25.08;36.20;101715.41;5031102;28;20381;-76
2022/09/05 02:17:13;;;;;;;73.43;69.63;;;;;;;25.04;36.21;101714.41;5037890;28;20036;-74
2022/09/05 02:19:46;;;;;;;66.32;62.92;;;;;;;25.02;36.56;101709.19;5047631;28;20111;-78
2022/09/05 02:22:21;;;;;;;68.50;64.80;;;;;;;25.00;36.23;101713.41;5044130;28;20037;-75
2022/09/05 02:25:00;;;;;;;69.90;66.43;;;;;;;24.98;36.17;101713.72;5045825;28;20064;-74
2022/09/05 02:28:00;;;;;;;68.18;64.68;;;;;;;24.95;36.55;101719.06;5048989;28;20036;-73
2022/09/05 02:30:33;;;;;;;69.53;65.63;;;;;;;24.91;36.55;101718.06;5039326;28;20048;-75
2022/09/05 02:33:21;;;;;;;64.07;60.67;;;;;;;24.90;36.56;101725.56;5037193;28;20087;-73
2022/09/05 02:36:21;;;;;;;68.75;65.07;;;;;;;24.86;36.35;101715.44;5039874;28;20043;-76
2022/09/05 02:38:58;;;;;;;66.20;62.80;;;;;;;24.81;36.70;101717.19;5046164;28;20037;-76
2022/09/05 02:41:33;;;;;;;69.32;65.57;;;;;;;24.80;36.63;101718.34;5036197;28;20034;-78
2022/09/05 02:44:10;;;;;;;69.70;65.55;;;;;;;24.77;36.57;101724.50;5035480;28;20037;-74
2022/09/05 02:46:59;;;;;;;67.78;64.07;;;;;;;24.74;36.07;101710.47;5041137;28;20033;-73
2022/09/05 02:49:33;;;;;;;67.13;63.42;;;;;;;24.72;36.23;101715.50;5047024;28;20166;-75
2022/09/05 02:52:08;;;;;;;64.63;61.33;;;;;;;24.69;36.29;101716.13;5051893;28;20150;-74
2022/09/05 02:54:39;;;;;;;68.20;64.60;;;;;;;24.67;36.85;101724.75;5034623;28;20041;-73
2022/09/05 02:57:07;;;;;;;68.47;65.05;;;;;;;24.64;36.87;101728.13;5053108;28;20059;-74
2022/09/05 02:59:48;;;;;;;67.32;63.17;;;;;;;24.61;36.97;101729.56;5052730;28;20029;-74
2022/09/05 03:02:48;;;;;;;68.50;64.53;;;;;;;24.58;36.68;101727.44;5053127;28;20065;-78
2022/09/05 03:05:22;;;;;;;67.03;63.53;;;;;;;24.55;36.92;101719.78;5050731;28;20079;-72
2022/09/05 03:08:02;;;;;;;68.20;64.53;;;;;;;24.53;36.80;101722.03;5036969;28;20029;-73
2022/09/05 03:10:49;;;;;;;66.10;62.55;;;;;;;24.50;36.67;101722.69;5042735;28;20049;-73
2022/09/05 03:13:48;;;;;;;64.30;61.10;;;;;;;24.47;36.60;101720.53;5046569;28;20045;-76
2022/09/05 03:16:32;;;;;;;63.25;59.85;;;;;;;24.44;36.98;101723.88;5041568;28;20104;-78
2022/09/05 03:19:15;;;;;;;66.30;62.92;;;;;;;24.41;37.10;101711.50;5052408;28;20476;-74
2022/09/05 03:22:17;;;;;;;68.05;64.20;;;;;;;24.37;36.88;101707.75;5051879;28;20044;-73
2022/09/05 03:25:10;;;;;;;65.95;62.33;;;;;;;24.35;36.68;101712.78;5039583;28;20045;-74
2022/09/05 03:28:03;;;;;;;70.47;66.72;;;;;;;24.33;36.95;101715.03;5042606;28;20025;-75
2022/09/05 03:31:13;;;;;;;66.00;62.35;;;;;;;24.30;36.71;101709.34;5051445;28;20044;-74
2022/09/05 03:34:10;;;;;;;68.38;64.70;;;;;;;24.27;36.71;101716.28;5020123;28;20036;-75
2022/09/05 03:36:51;;;;;;;68.75;65.07;;;;;;;24.24;37.13;101716.91;5023154;28;20053;-75
2022/09/05 03:39:53;;;;;;;67.43;63.92;;;;;;;24.21;36.72;101719.47;5040423;28;20037;-74
2022/09/05 03:42:33;;;;;;;69.95;66.25;;;;;;;24.18;36.64;101707.09;5039388;28;20072;-74
2022/09/05 03:45:11;;;;;;;65.70;62.22;;;;;;;24.13;37.14;101710.78;5051564;28;20442;-77
2022/09/05 03:48:11;;;;;;;64.88;61.47;;;;;;;24.11;37.10;101718.56;5039448;28;20029;-75
2022/09/05 03:51:18;;;;;;;66.45;63.00;;;;;;;24.08;37.08;101710.91;5048452;28;20477;-73
2022/09/05 03:54:03;;;;;;;66.00;62.40;;;;;;;24.05;37.05;101711.53;5034439;28;20087;-75
2022/09/05 03:56:31;;;;;;;65.15;61.67;;;;;;;24.04;37.19;101711.84;5043864;28;20083;-74
2022/09/05 03:59:23;;;;;;;65.80;62.38;;;;;;;24.01;37.37;101713.28;5052103;28;20029;-74
2022/09/05 04:02:01;;;;;;;71.15;67.25;;;;;;;23.98;37.44;101708.38;5023371;28;20103;-73
2022/09/05 04:04:52;;;;;;;67.97;64.35;;;;;;;23.97;36.97;101712.28;5048186;28;20033;-76
2022/09/05 04:07:38;;;;;;;64.95;61.50;;;;;;;23.94;36.99;101719.25;5044653;28;20034;-74
2022/09/05 04:10:12;;;;;;;62.90;59.58;;;;;;;23.92;37.42;101723.44;5050313;28;20029;-75
2022/09/05 04:12:46;;;;;;;70.22;66.63;;;;;;;23.89;37.49;101713.84;5036509;28;20040;-76
2022/09/05 04:15:29;;;;;;;66.28;62.50;;;;;;;23.87;37.19;101718.03;5051341;28;20534;-74
2022/09/05 04:18:01;;;;;;;65.25;61.78;;;;;;;23.83;36.96;101709.53;5033400;28;20029;-73
2022/09/05 04:20:42;;;;;;;66.45;62.95;;;;;;;23.83;37.42;101717.00;5033865;28;20087;-75
2022/09/05 04:23:30;;;;;;;66.60;62.95;;;;;;;23.80;37.53;101712.91;5050225;28;20044;-78
2022/09/05 04:26:18;;;;;;;64.13;60.83;;;;;;;23.77;37.21;101718.25;5043332;28;20059;-73
2022/09/05 04:29:02;;;;;;;65.20;61.80;;;;;;;23.74;37.58;101716.94;5040363;28;20044;-78
2022/09/05 04:31:36;;;;;;;64.40;61.05;;;;;;;23.72;37.23;101719.13;5032995;28;20025;-77
2022/09/05 04:34:15;;;;;;;64.15;60.75;;;;;;;23.69;37.64;101722.53;5039899;28;20388;-76
2022/09/05 04:36:42;;;;;;;65.88;62.20;;;;;;;23.67;37.76;101725.56;5032582;28;20029;-74
2022/09/05 04:39:17;;;;;;;67.25;63.75;;;;;;;23.65;37.76;101722.31;5043363;28;20508;-73
2022/09/05 04:41:54;;;;;;;65.45;61.85;;;;;;;23.61;37.56;101721.31;5051038;28;20036;-77
2022/09/05 04:44:28;;;;;;;63.70;60.33;;;;;;;23.61;37.57;101726.81;5051757;28;20037;-73
2022/09/05 04:47:00;;;;;;;62.42;58.92;;;;;;;23.59;37.94;101739.28;5051039;28;20384;-73
2022/09/05 04:49:32;;;;;;;62.38;58.97;;;;;;;23.57;38.00;101733.25;5052204;28;20033;-74
2022/09/05 04:52:09;;;;;;;62.10;58.60;;;;;;;23.54;37.82;101737.44;5051171;28;20401;-75
2022/09/05 04:54:52;;;;;;;66.45;62.67;;;;;;;23.52;37.52;101736.91;5047624;28;20759;-76
2022/09/05 04:57:21;;;;;;;61.17;57.78;;;;;;;23.50;37.60;101736.41;5050682;28;20037;-76
2022/09/05 05:00:01;;;;;;;61.95;58.30;;;;;;;23.47;37.99;101735.06;5037594;28;20025;-73
2022/09/05 05:02:48;;;;;;;63.47;60.08;;;;;;;23.46;37.79;101740.88;5050429;28;20112;-74
2022/09/05 05:05:21;;;;;;;63.63;60.23;;;;;;;23.42;37.86;101740.69;5049782;28;20473;-74
2022/09/05 05:07:58;;;;;;;64.97;61.28;;;;;;;23.40;38.03;101742.94;5049806;28;20064;-74
2022/09/05 05:10:56;;;;;;;62.23;58.87;;;;;;;23.39;37.66;101737.75;5033883;28;20512;-73
2022/09/05 05:13:28;;;;;;;;;;;;;;;23.36;37.67;101747.44;5041212;28;20148;-76
2022/09/05 05:16:11;;;;;;;59.40;56.40;;;;;;;23.31;38.04;101745.59;5050342;28;20275;-74
2022/09/05 05:18:46;;;;;;;60.60;57.05;;;;;;;23.28;37.87;101740.69;5050288;28;20037;-78
2022/09/05 05:21:18;;;;;;;60.92;57.67;;;;;;;23.27;37.91;101738.22;5051958;28;20029;-73
2022/09/05 05:23:46;;;;;;;63.72;60.33;;;;;;;23.25;37.72;101741.28;5045088;28;20042;-74
2022/09/05 05:26:46;;;;;;;62.33;59.03;;;;;;;23.23;38.21;101739.94;5047547;28;20024;-75
2022/09/05 05:29:14;;;;;;;64.25;60.20;;;;;;;23.21;38.33;101744.94;5027444;28;20049;-74
2022/09/05 05:31:48;;;;;;;61.38;57.88;;;;;;;23.19;37.78;101742.50;5031613;28;20148;-75
2022/09/05 05:34:20;;;;;;;59.97;56.58;;;;;;;23.18;38.25;101745.56;5044579;28;20129;-76
2022/09/05 05:36:51;;;;;;;60.75;57.50;;;;;;;23.15;38.56;101744.22;5031742;28;20035;-77
2022/09/05 05:39:24;;;;;;;61.20;57.72;;;;;;;23.14;37.88;101741.78;5047539;28;20025;-75
2022/09/05 05:41:55;;;;;;;63.25;59.83;;;;;;;23.11;37.93;101744.03;5033906;28;20067;-74
2022/09/05 05:44:31;;;;;;;62.30;58.38;;;;;;;23.10;38.20;101745.13;5042823;28;20728;-73
2022/09/05 05:47:10;;;;;;;62.38;58.95;;;;;;;23.08;38.21;101757.56;5030954;28;20045;-73
2022/09/05 05:49:44;;;;;;;58.90;55.83;;;;;;;23.06;38.49;101754.31;5045384;28;20076;-74
2022/09/05 05:52:24;;;;;;;61.67;58.28;;;;;;;23.04;38.61;101751.88;5031614;28;20025;-73
2022/09/05 05:55:21;;;;;;;60.92;57.15;;;;;;;23.01;38.32;101752.47;5038130;28;20068;-74
2022/09/05 05:58:18;;;;;;;59.33;56.03;;;;;;;22.98;38.28;101758.59;5049532;28;20115;-79
2022/09/05 06:01:02;;;;;;;60.83;57.30;;;;;;;22.96;38.64;101765.50;5042362;28;20099;-76
2022/09/05 06:03:27;;;;;;;58.60;55.42;;;;;;;22.94;38.54;101759.47;5043029;28;20465;-73
2022/09/05 06:06:01;;;;;;;58.97;55.13;;;;;;;22.92;38.76;101769.97;5048867;28;20033;-73
2022/09/05 06:08:46;;;;;;;58.53;55.13;;;;;;;22.92;38.78;101769.97;5050100;28;20063;-74
2022/09/05 06:11:32;;;;;;;60.08;56.88;;;;;;;22.89;39.13;101776.91;5033765;28;20363;-74
2022/09/05 06:14:19;;;;;;;57.40;54.25;;;;;;;22.87;39.00;101776.38;5043032;28;20029;-75
2022/09/05 06:16:53;;;;;;;58.13;54.83;;;;;;;22.85;39.06;101776.66;5057280;28;20033;-74
2022/09/05 06:20:06;;;;;;;58.85;55.67;;;;;;;22.84;38.85;101776.97;5049733;28;20075;-76
2022/09/05 06:23:02;;;;;;;60.45;57.35;;;;;;;22.80;39.13;101770.41;5046505;28;20061;-73
2022/09/05 06:25:27;;;;;;;58.15;54.85;;;;;;;22.79;39.02;101779.81;5043017;28;20469;-74
2022/09/05 06:28:16;;;;;;;59.70;56.33;;;;;;;22.78;39.17;101776.25;5048902;28;20029;-74
2022/09/05 06:31:02;;;;;;;59.58;56.28;;;;;;;22.77;39.13;101776.53;5041473;28;20048;-78
2022/09/05 06:33:38;;;;;;;58.90;55.42;;;;;;;22.74;39.08;101783.47;5047255;28;20033;-75
2022/09/05 06:36:22;;;;;;;62.00;58.42;;;;;;;22.74;38.68;101780.72;5032340;28;20043;-74
2022/09/05 06:39:04;;;;;;;60.88;57.47;;;;;;;22.73;38.77;101778.25;5044334;28;20086;-80
2022/09/05 06:41:39;;;;;;;58.67;55.47;;;;;;;22.71;39.08;101775.81;5045106;28;20029;-76
2022/09/05 06:44:23;;;;;;;58.95;55.67;;;;;;;22.71;39.32;101775.00;5044109;28;20477;-76
2022/09/05 06:46:53;;;;;;;57.65;54.35;;;;;;;22.69;39.49;101772.53;5045116;28;20029;-77
2022/09/05 06:49:18;;;;;;;59.00;55.38;;;;;;;22.69;39.03;101786.31;5045537;28;20037;-77
2022/09/05 06:52:05;;;;;;;61.83;57.58;;;;;;;22.68;39.02;101777.22;5044824;28;20171;-78
2022/09/05 06:54:43;;;;;;;57.05;53.95;;;;;;;22.68;39.39;101777.22;5047705;28;20116;-79
2022/09/05 06:57:20;;;;;;;56.58;53.53;;;;;;;22.67;39.74;101774.75;5045821;28;20025;-78
2022/09/05 07:00:07;;;;;;;60.40;57.00;;;;;;;22.67;39.61;101783.03;5044954;28;20095;-74
2022/09/05 07:02:38;;;;;;;59.92;56.47;;;;;;;22.66;39.46;101784.16;5042208;28;20036;-78
2022/09/05 07:05:14;;;;;;;58.42;55.22;;;;;;;22.67;40.15;101788.53;5044852;28;20060;-77
2022/09/05 07:07:50;;;;;;;57.42;54.20;;;;;;;22.66;39.73;101784.97;5043835;28;20053;-74
2022/09/05 07:10:29;;;;;;;58.92;55.17;;;;;;;22.67;40.39;101785.78;5044778;28;20122;-72
2022/09/05 07:13:06;;;;;;;59.55;55.75;;;;;;;22.66;40.05;101789.66;5039216;28;20207;-72
2022/09/05 07:15:52;;;;;;;56.85;53.35;;;;;;;22.66;40.06;101792.41;5045825;28;20037;-72
2022/09/05 07:18:34;;;;;;;58.00;54.83;;;;;;;22.67;40.12;101796.78;5042740;28;20037;-74
2022/09/05 07:21:12;;;;;;;58.10;54.90;;;;;;;22.67;40.25;101802.31;5044725;28;20040;-73
2022/09/05 07:23:46;;;;;;;58.38;54.80;;;;;;;22.67;40.42;101797.59;5040409;28;20052;-73
2022/09/05 07:26:13;;;;;;;59.15;55.92;;;;;;;22.67;40.31;101800.34;5044065;28;20033;-72
2022/09/05 07:28:47;;;;;;;57.90;54.78;;;;;;;22.69;40.41;101800.06;5045161;28;20033;-73
2022/09/05 07:31:22;;;;;;;56.90;53.55;;;;;;;22.70;40.49;101798.94;5047263;28;20523;-71
2022/09/05 07:33:49;;;;;;;58.22;54.92;;;;;;;22.71;40.51;101795.09;5048990;28;20029;-72
2022/09/05 07:36:18;;;;;;;59.78;56.05;;;;;;;22.73;40.45;101794.78;5050137;28;20033;-72
2022/09/05 07:38:49;;;;;;;58.45;54.65;;;;;;;22.74;40.75;101800.00;5048280;28;20029;-72
2022/09/05 07:41:23;;;;;;;56.47;52.75;;;;;;;22.76;40.22;101802.47;5048628;28;20037;-71
2022/09/05 07:43:54;;;;;;;59.20;54.92;;;;;;;22.78;40.56;101802.94;5046446;28;20445;-73
2022/09/05 07:46:23;;;;;;;57.05;53.83;;;;;;;22.80;40.38;101796.03;5043993;28;20041;-73
2022/09/05 07:48:56;;;;;;;57.40;54.25;;;;;;;22.83;41.09;101797.38;5045637;28;22034;-73
2022/09/05 07:51:28;;;;;;;54.35;51.40;;;;;;;22.87;40.47;101795.66;5047346;28;20025;-71
2022/09/05 07:54:25;;;;;;;58.05;55.05;;;;;;;22.90;40.81;101790.34;5044918;28;20029;-71
2022/09/05 07:56:54;;;;;;;57.83;54.78;;;;;;;22.94;41.11;101793.34;5042839;28;20044;-72
2022/09/05 07:59:22;;;;;;;58.97;55.80;;;;;;;22.97;40.59;101801.03;5048426;28;20469;-72
2022/09/05 08:01:49;;;;;;;59.33;55.72;;;;;;;23.01;41.01;101795.75;5048669;28;20037;-71
2022/09/05 08:04:28;;;;;;;62.53;58.85;;;;;;;23.06;41.48;101799.22;5048496;28;20033;-72
2022/09/05 08:06:55;;;;;;;;;;;;;;;23.08;40.25;101801.66;5048367;28;20041;-72
2022/09/05 08:09:43;;;;;;;55.53;51.93;;;;;;;23.11;40.60;101807.41;5046694;28;19966;-75
2022/09/05 08:12:16;;;;;;;59.28;56.20;;;;;;;23.17;40.76;101815.59;5032767;28;20043;-72
2022/09/05 08:14:47;;;;;;;59.10;55.70;;;;;;;23.21;41.31;101811.09;5047049;28;20047;-72
2022/09/05 08:17:17;;;;;;;60.25;56.65;;;;;;;23.26;41.32;101811.03;5047790;28;20043;-73
2022/09/05 08:19:54;;;;;;;59.97;56.65;;;;;;;23.32;41.07;101818.06;5044088;28;20028;-71
2022/09/05 08:22:23;;;;;;;58.80;55.70;;;;;;;23.39;41.46;101813.00;5045223;28;20045;-71
2022/09/05 08:24:55;;;;;;;59.15;55.65;;;;;;;23.44;41.21;101815.66;5044902;28;20037;-71
2022/09/05 08:27:28;;;;;;;59.00;55.80;;;;;;;23.50;41.48;101811.66;5047660;28;20039;-72
2022/09/05 08:30:09;;;;;;;60.00;56.90;;;;;;;23.56;41.57;101817.91;5046444;28;20031;-71
2022/09/05 08:32:47;;;;;;;57.80;53.75;;;;;;;23.61;41.57;101815.06;5044861;28;20060;-72
2022/09/05 08:35:28;;;;;;;58.53;55.65;;;;;;;23.68;41.52;101820.16;5048480;28;20029;-71
2022/09/05 08:37:56;;;;;;;61.33;58.13;;;;;;;23.73;41.21;101815.41;5044450;28;20048;-71
2022/09/05 08:40:34;;;;;;;59.95;56.88;;;;;;;23.80;41.47;101814.19;5046832;28;20037;-72
2022/09/05 08:43:31;;;;;;;64.47;60.50;;;;;;;23.87;41.41;101815.41;5044149;28;20033;-71
2022/09/05 08:46:05;;;;;;;61.05;57.90;;;;;;;23.92;41.45;101818.06;5043506;28;20040;-70
2022/09/05 08:48:58;;;;;;;60.08;56.88;;;;;;;23.97;41.20;101817.97;5046677;28;20461;-72
2022/09/05 08:51:45;;;;;;;60.30;57.22;;;;;;;24.03;41.48;101817.84;5043337;28;20041;-71
2022/09/05 08:54:14;;;;;;;58.67;55.65;;;;;;;24.07;40.90;101816.94;5044803;28;20503;-72
2022/09/05 08:57:09;;;;;;;61.47;58.30;;;;;;;24.12;40.80;101799.47;5043682;28;20025;-72
2022/09/05 08:59:59;;;;;;;60.42;57.42;;;;;;;24.17;40.67;101811.19;5047116;28;20036;-73
2022/09/05 09:02:51;;;;;;;60.85;57.83;;;;;;;24.24;40.82;101801.66;5046434;28;20037;-72
2022/09/05 09:05:22;;;;;;;61.13;57.97;;;;;;;24.30;40.47;101797.69;5047070;28;20037;-73
2022/09/05 09:08:14;;;;;;;66.40;63.17;;;;;;;24.34;40.80;101802.28;5046018;28;20104;-73
2022/09/05 09:11:02;;;;;;;62.70;59.55;;;;;;;24.39;40.62;101798.56;5046860;28;20476;-74
2022/09/05 09:14:21;;;;;;;66.50;63.20;;;;;;;24.44;39.85;101800.41;5044030;28;20045;-72
2022/09/05 09:16:52;;;;;;;63.67;60.08;;;;;;;24.50;40.26;101799.19;4987467;28;20125;-73
2022/09/05 09:19:32;;;;;;;64.38;61.17;;;;;;;24.55;40.35;101788.03;5045171;28;20071;-72
2022/09/05 09:22:16;;;;;;;63.13;59.63;;;;;;;24.59;40.23;101789.03;5046651;28;20032;-71
2022/09/05 09:24:49;;;;;;;62.72;59.63;;;;;;;24.64;40.44;101788.09;5046282;28;20127;-71
2022/09/05 09:27:50;;;;;;;63.67;60.58;;;;;;;24.71;40.23;101778.22;5045764;28;20428;-71
2022/09/05 09:30:17;;;;;;;62.90;59.60;;;;;;;24.75;40.43;101772.91;4978830;28;20049;-72
2022/09/05 09:32:45;;;;;;;63.90;60.78;;;;;;;24.79;40.50;101766.41;5047130;28;20051;-71
2022/09/05 09:35:35;;;;;;;65.95;62.65;;;;;;;24.85;39.91;101767.13;5046700;28;20582;-72
2022/09/05 09:38:37;;;;;;;64.40;61.15;;;;;;;24.90;39.74;101761.47;5041688;28;22124;-71
2022/09/05 09:41:36;;;;;;;65.95;62.72;;;;;;;24.96;39.84;101764.91;5042193;28;20478;-75
2022/09/05 09:44:18;;;;;;;67.80;64.53;;;;;;;25.02;39.69;101763.63;5043829;28;20463;-72
2022/09/05 09:46:47;;;;;;;69.70;66.20;;;;;;;25.06;39.57;101761.88;5044029;28;20021;-73
2022/09/05 09:49:28;;;;;;;67.30;64.00;;;;;;;25.12;39.29;101774.44;5044460;28;20045;-73
2022/09/05 09:52:15;;;;;;;64.63;61.28;;;;;;;25.19;39.33;101761.00;5045267;28;20465;-72
2022/09/05 09:54:49;;;;;;;68.57;65.22;;;;;;;25.26;39.00;101766.09;5045139;28;20087;-72
2022/09/05 09:57:40;;;;;;;70.20;66.50;;;;;;;25.31;39.16;101765.97;5039620;28;20473;-74
2022/09/05 10:00:13;;;;;;;71.68;68.28;;;;;;;25.35;38.63;101758.66;5039230;28;20039;-73
2022/09/05 10:03:06;;;;;;;72.13;68.53;;;;;;;25.41;38.16;101751.03;5041884;28;20457;-73
2022/09/05 10:05:56;;;;;;;70.40;67.20;;;;;;;25.46;38.40;101753.66;5047433;28;20025;-73
2022/09/05 10:08:40;;;;;;;70.07;66.57;;;;;;;25.52;38.04;101757.09;5042181;28;20384;-73
2022/09/05 10:11:54;;;;;;;69.80;65.50;;;;;;;25.57;38.18;101751.41;5044969;28;20037;-73
2022/09/05 10:14:44;;;;;;;66.25;63.20;;;;;;;25.63;38.15;101745.44;5043217;28;20033;-74
2022/09/05 10:18:01;;;;;;;70.35;66.45;;;;;;;25.70;38.23;101744.94;5037289;28;20048;-73
2022/09/05 10:20:49;;;;;;;66.85;63.70;;;;;;;25.77;37.48;101742.53;4984785;28;20080;-72
2022/09/05 10:23:33;;;;;;;69.43;65.45;;;;;;;25.82;38.00;101736.84;5044127;28;20064;-76
2022/09/05 10:26:29;;;;;;;70.38;66.90;;;;;;;25.87;37.63;101733.94;5038674;28;20037;-73
2022/09/05 10:29:01;;;;;;;70.85;67.35;;;;;;;25.94;37.24;101730.72;5043110;28;20017;-73
2022/09/05 10:32:03;;;;;;;70.88;67.50;;;;;;;26.00;37.01;101721.09;5043024;28;20064;-72
2022/09/05 10:34:39;;;;;;;70.72;67.25;;;;;;;26.04;37.36;101724.06;5044346;28;20032;-71
2022/09/05 10:37:09;;;;;;;69.40;66.10;;;;;;;26.10;37.33;101723.56;5041239;28;20148;-72
2022/09/05 10:39:40;;;;;;;69.65;66.18;;;;;;;26.16;36.57;101718.69;5045685;28;20091;-73
2022/09/05 10:42:14;;;;;;;72.65;69.22;;;;;;;26.22;36.47;101714.63;5043464;28;20128;-74
2022/09/05 10:44:51;;;;;;;72.63;69.05;;;;;;;26.27;37.08;101708.91;5046113;28;20032;-72
2022/09/05 10:47:43;;;;;;;71.07;67.57;;;;;;;26.32;37.03;101702.41;5047482;28;20032;-72
2022/09/05 10:50:17;;;;;;;76.50;72.57;;;;;;;26.35;37.24;101707.28;5042157;28;20120;-72
2022/09/05 10:53:06;;;;;;;74.97;70.97;;;;;;;26.43;36.77;101708.41;5041122;28;20128;-72
2022/09/05 10:55:44;;;;;;;79.28;75.53;;;;;;;26.46;36.40;101700.28;5046836;28;20029;-72
2022/09/05 10:58:34;;;;;;;79.22;75.25;;;;;;;26.53;36.22;101702.56;5043962;28;20037;-71
2022/09/05 11:01:26;;;;;;;75.28;71.57;;;;;;;26.59;35.84;101704.03;5045563;28;20056;-72
2022/09/05 11:04:12;;;;;;;73.57;69.97;;;;;;;26.63;35.67;101696.69;5015182;28;20548;-71
2022/09/05 11:06:41;;;;;;;77.82;74.20;;;;;;;26.67;36.02;101689.34;5046065;28;20036;-75
2022/09/05 11:09:12;;;;;;;77.90;74.03;;;;;;;26.71;36.35;101687.56;5046778;28;20028;-72
2022/09/05 11:11:45;;;;;;;76.30;72.47;;;;;;;26.76;36.27;101692.91;5045485;28;20029;-72
2022/09/05 11:14:40;;;;;;;77.60;74.00;;;;;;;26.82;35.92;101689.97;5049158;28;20540;-72
2022/09/05 11:17:22;;;;;;;77.95;74.25;;;;;;;26.87;35.84;101689.78;5046623;28;20032;-70
2022/09/05 11:19:54;;;;;;;77.38;73.90;;;;;;;26.92;34.85;101681.28;5047914;28;20139;-72
2022/09/05 11:22:23;;;;;;;75.05;71.40;;;;;;;26.95;34.99;101695.28;5047791;28;20141;-71
2022/09/05 11:24:56;;;;;;;82.50;78.43;;;;;;;26.99;35.38;101684.38;5041937;28;20052;-73
2022/09/05 11:27:36;;;;;;;78.47;74.93;;;;;;;27.04;35.10;101684.19;5044844;28;20025;-72
2022/09/05 11:30:29;;;;;;;77.78;74.25;;;;;;;27.09;34.95;101683.16;5048460;28;20067;-72
2022/09/05 11:33:32;;;;;;;78.82;74.82;;;;;;;27.14;34.47;101689.38;5046410;28;20029;-73
2022/09/05 11:36:15;;;;;;;72.72;69.43;;;;;;;27.19;34.78;101677.31;5043983;28;20034;-72
2022/09/05 11:39:26;;;;;;;77.78;74.07;;;;;;;27.23;34.51;101683.81;5047447;28;20468;-73
2022/09/05 11:42:27;;;;;;;82.97;79.18;;;;;;;27.28;34.64;101689.16;5024915;28;20096;-72
2022/09/05 11:45:07;;;;;;;79.20;75.60;;;;;;;27.32;34.42;101678.22;5047994;28;20435;-72
2022/09/05 11:47:55;;;;;;;81.40;77.70;;;;;;;27.37;34.56;101684.38;5040804;28;20033;-75
2022/09/05 11:50:35;;;;;;;86.25;82.35;;;;;;;27.46;34.00;101687.09;5041817;28;20029;-71
2022/09/05 11:53:26;;;;;;;80.55;76.95;;;;;;;27.55;34.00;101685.09;5049021;28;20120;-71
2022/09/05 11:56:06;;;;;;;82.88;78.95;;;;;;;27.61;34.90;101686.53;5043936;28;20021;-72
2022/09/05 11:59:05;;;;;;;81.18;77.47;;;;;;;27.67;34.93;101684.38;5077047;28;20048;-71
2022/09/05 12:01:43;;;;;;;79.35;75.80;;;;;;;27.73;34.73;101679.44;5048745;28;20033;-71
2022/09/05 12:04:08;;;;;;;;;;;;;;;27.76;34.77;101676.00;5048595;28;20037;-72
2022/09/05 12:06:56;;;;;;;76.95;73.47;;;;;;;27.80;34.15;101674.97;5047690;28;20054;-72
2022/09/05 12:09:30;;;;;;;80.80;77.10;;;;;;;27.83;34.22;101677.09;5048451;28;20043;-73
2022/09/05 12:12:01;;;;;;;79.00;75.47;;;;;;;27.88;34.01;101666.97;5049028;28;20782;-71
2022/09/05 12:14:43;;;;;;;83.30;79.63;;;;;;;27.93;34.84;101661.22;5046624;28;20052;-73
2022/09/05 12:17:40;;;;;;;86.75;82.65;;;;;;;27.99;34.19;101657.06;5044978;28;20032;-72